sensor_id;sensor_type;location;lat;lon;timestamp;pressure;altitude;pressure_sealevel;temperature;humidity
73564;BME280;61834;50.196;6.454;2023-02-15T00:01:07;97648.88;;;-1.79;98.92
73564;BME280;61834;50.196;6.454;2023-02-15T00:03:33;97644.50;;;-1.60;98.96
73564;BME280;61834;50.196;6.454;2023-02-15T00:05:59;97644.03;;;-1.77;99.56
73564;BME280;61834;50.196;6.454;2023-02-15T00:08:24;97636.75;;;-1.72;100.00
73564;BME280;61834;50.196;6.454;2023-02-15T00:10:50;97634.59;;;-1.70;100.00
73564;BME280;61834;50.196;6.454;2023-02-15T00:13:15;97637.91;;;-1.88;99.91
73564;BME280;61834;50.196;6.454;2023-02-15T00:15:40;97633.94;;;-2.00;99.44
73564;BME280;61834;50.196;6.454;2023-02-15T00:18:05;97632.50;;;-1.83;99.14
73564;BME280;61834;50.196;6.454;2023-02-15T00:20:31;97624.19;;;-1.81;98.73
73564;BME280;61834;50.196;6.454;2023-02-15T00:22:56;97629.88;;;-1.93;98.18
73564;BME280;61834;50.196;6.454;2023-02-15T00:25:22;97634.75;;;-2.15;98.70
73564;BME280;61834;50.196;6.454;2023-02-15T00:27:47;97632.34;;;-2.21;99.02
73564;BME280;61834;50.196;6.454;2023-02-15T00:30:12;97624.28;;;-2.16;99.46
73564;BME280;61834;50.196;6.454;2023-02-15T00:32:38;97631.78;;;-2.08;99.46
73564;BME280;61834;50.196;6.454;2023-02-15T00:35:03;97630.97;;;-1.99;99.76
73564;BME280;61834;50.196;6.454;2023-02-15T00:37:29;97626.69;;;-2.10;99.24
73564;BME280;61834;50.196;6.454;2023-02-15T00:39:54;97612.94;;;-1.93;99.02
73564;BME280;61834;50.196;6.454;2023-02-15T00:42:20;97624.03;;;-2.30;99.01
73564;BME280;61834;50.196;6.454;2023-02-15T00:44:45;97623.25;;;-2.30;98.91
73564;BME280;61834;50.196;6.454;2023-02-15T00:47:10;97617.91;;;-2.35;99.13
73564;BME280;61834;50.196;6.454;2023-02-15T00:49:35;97624.03;;;-2.35;99.48
73564;BME280;61834;50.196;6.454;2023-02-15T00:52:01;97617.91;;;-2.30;99.46
73564;BME280;61834;50.196;6.454;2023-02-15T00:54:26;97614.66;;;-2.22;99.58
73564;BME280;61834;50.196;6.454;2023-02-15T00:56:52;97609.28;;;-2.17;100.00
73564;BME280;61834;50.196;6.454;2023-02-15T00:59:17;97609.53;;;-2.14;100.00
73564;BME280;61834;50.196;6.454;2023-02-15T01:01:42;97614.63;;;-2.17;100.00
73564;BME280;61834;50.196;6.454;2023-02-15T01:04:08;97607.66;;;-2.13;100.00
73564;BME280;61834;50.196;6.454;2023-02-15T01:06:33;97611.44;;;-2.24;100.00
73564;BME280;61834;50.196;6.454;2023-02-15T01:08:58;97607.97;;;-2.35;100.00
73564;BME280;61834;50.196;6.454;2023-02-15T01:11:24;97601.28;;;-2.47;100.00
73564;BME280;61834;50.196;6.454;2023-02-15T01:13:51;97601.81;;;-2.45;100.00
73564;BME280;61834;50.196;6.454;2023-02-15T01:16:17;97600.22;;;-2.51;100.00
73564;BME280;61834;50.196;6.454;2023-02-15T01:18:43;97607.72;;;-2.59;100.00
73564;BME280;61834;50.196;6.454;2023-02-15T01:21:13;97603.69;;;-2.46;100.00
73564;BME280;61834;50.196;6.454;2023-02-15T01:23:39;97609.84;;;-2.25;99.99
73564;BME280;61834;50.196;6.454;2023-02-15T01:26:05;97607.41;;;-2.37;100.00
73564;BME280;61834;50.196;6.454;2023-02-15T01:28:31;97603.13;;;-2.38;99.81
73564;BME280;61834;50.196;6.454;2023-02-15T01:30:57;97596.97;;;-2.33;99.91
73564;BME280;61834;50.196;6.454;2023-02-15T01:33:24;97592.94;;;-2.31;99.66
73564;BME280;61834;50.196;6.454;2023-02-15T01:35:56;97586.53;;;-2.55;99.66
73564;BME280;61834;50.196;6.454;2023-02-15T01:38:21;97584.13;;;-2.46;99.94
73564;BME280;61834;50.196;6.454;2023-02-15T01:40:46;97592.13;;;-2.26;99.48
73564;BME280;61834;50.196;6.454;2023-02-15T01:43:12;97586.47;;;-2.20;99.34
73564;BME280;61834;50.196;6.454;2023-02-15T01:45:38;97581.06;;;-2.10;98.84
73564;BME280;61834;50.196;6.454;2023-02-15T01:48:22;97589.97;;;-2.24;98.32
73564;BME280;61834;50.196;6.454;2023-02-15T01:50:53;97586.53;;;-2.45;99.34
73564;BME280;61834;50.196;6.454;2023-02-15T01:53:24;97584.88;;;-2.21;100.00
73564;BME280;61834;50.196;6.454;2023-02-15T01:55:57;97581.63;;;-2.08;99.40
73564;BME280;61834;50.196;6.454;2023-02-15T01:58:26;97578.06;;;-1.93;99.09
73564;BME280;61834;50.196;6.454;2023-02-15T02:00:53;97570.56;;;-1.91;98.69
73564;BME280;61834;50.196;6.454;2023-02-15T02:03:32;97573.22;;;-1.86;98.57
73564;BME280;61834;50.196;6.454;2023-02-15T02:06:02;97575.94;;;-1.96;98.82
73564;BME280;61834;50.196;6.454;2023-02-15T02:08:28;97572.78;;;-2.18;98.71
73564;BME280;61834;50.196;6.454;2023-02-15T02:10:53;97563.66;;;-2.07;99.13
73564;BME280;61834;50.196;6.454;2023-02-15T02:13:18;97569.88;;;-2.32;98.85
73564;BME280;61834;50.196;6.454;2023-02-15T02:15:54;97557.22;;;-2.16;99.03
73564;BME280;61834;50.196;6.454;2023-02-15T02:23:51;97551.19;;;-2.62;99.49
73564;BME280;61834;50.196;6.454;2023-02-15T02:29:50;97547.88;;;-2.24;100.00
73564;BME280;61834;50.196;6.454;2023-02-15T02:35:49;97538.31;;;-2.70;99.64
73564;BME280;61834;50.196;6.454;2023-02-15T02:38:28;97537.22;;;-2.49;99.98
73564;BME280;61834;50.196;6.454;2023-02-15T02:44:42;97532.88;;;-2.40;99.68
73564;BME280;61834;50.196;6.454;2023-02-15T02:46:44;97525.66;;;-2.34;100.00
73564;BME280;61834;50.196;6.454;2023-02-15T02:49:11;97522.41;;;-2.31;100.00
73564;BME280;61834;50.196;6.454;2023-02-15T02:51:37;97523.25;;;-2.41;99.93
73564;BME280;61834;50.196;6.454;2023-02-15T02:54:05;97516.78;;;-2.35;99.39
73564;BME280;61834;50.196;6.454;2023-02-15T02:56:43;97516.03;;;-2.45;99.45
73564;BME280;61834;50.196;6.454;2023-02-15T02:59:23;97516.28;;;-2.42;99.22
73564;BME280;61834;50.196;6.454;2023-02-15T03:01:55;97513.88;;;-2.48;98.78
73564;BME280;61834;50.196;6.454;2023-02-15T03:04:35;97508.22;;;-2.37;99.13
73564;BME280;61834;50.196;6.454;2023-02-15T03:07:07;97510.88;;;-2.32;99.18
73564;BME280;61834;50.196;6.454;2023-02-15T03:09:37;97517.84;;;-2.31;99.20
73564;BME280;61834;50.196;6.454;2023-02-15T03:12:22;97508.50;;;-2.48;99.26
73564;BME280;61834;50.196;6.454;2023-02-15T03:14:53;97506.13;;;-2.60;98.95
73564;BME280;61834;50.196;6.454;2023-02-15T03:17:22;97508.53;;;-2.59;98.61
73564;BME280;61834;50.196;6.454;2023-02-15T03:19:51;97509.66;;;-2.80;98.35
73564;BME280;61834;50.196;6.454;2023-02-15T03:22:22;97503.47;;;-2.60;98.48
73564;BME280;61834;50.196;6.454;2023-02-15T03:24:59;97497.03;;;-2.59;98.40
73564;BME280;61834;50.196;6.454;2023-02-15T03:27:31;97496.53;;;-2.76;98.62
73564;BME280;61834;50.196;6.454;2023-02-15T03:30:00;97501.34;;;-2.78;98.92
73564;BME280;61834;50.196;6.454;2023-02-15T03:32:29;97499.19;;;-2.71;99.14
73564;BME280;61834;50.196;6.454;2023-02-15T03:34:57;97487.13;;;-2.69;99.26
73564;BME280;61834;50.196;6.454;2023-02-15T03:45:50;97505.84;;;-2.59;97.92
73564;BME280;61834;50.196;6.454;2023-02-15T03:48:32;97497.53;;;-2.52;99.03
73564;BME280;61834;50.196;6.454;2023-02-15T03:51:05;97503.97;;;-2.53;99.79
73564;BME280;61834;50.196;6.454;2023-02-15T03:53:52;97502.69;;;-2.71;100.00
73564;BME280;61834;50.196;6.454;2023-02-15T03:56:19;97505.84;;;-2.59;99.92
73564;BME280;61834;50.196;6.454;2023-02-15T03:58:44;97485.78;;;-2.61;100.00
73564;BME280;61834;50.196;6.454;2023-02-15T04:01:38;97493.59;;;-2.90;99.46
73564;BME280;61834;50.196;6.454;2023-02-15T04:06:52;97495.16;;;-2.74;98.80
73564;BME280;61834;50.196;6.454;2023-02-15T04:09:17;97492.47;;;-2.69;98.51
73564;BME280;61834;50.196;6.454;2023-02-15T04:12:18;97493.84;;;-2.76;98.91
73564;BME280;61834;50.196;6.454;2023-02-15T04:14:43;97492.47;;;-2.69;99.10
73564;BME280;61834;50.196;6.454;2023-02-15T04:17:27;97489.75;;;-2.53;100.00
73564;BME280;61834;50.196;6.454;2023-02-15T04:19:53;97486.78;;;-2.47;100.00
73564;BME280;61834;50.196;6.454;2023-02-15T04:22:37;97491.41;;;-2.58;99.99
73564;BME280;61834;50.196;6.454;2023-02-15T04:25:21;97490.09;;;-2.75;99.91
73564;BME280;61834;50.196;6.454;2023-02-15T04:27:49;97493.03;;;-2.67;99.78
73564;BME280;61834;50.196;6.454;2023-02-15T04:30:16;97488.13;;;-2.44;99.66
73564;BME280;61834;50.196;6.454;2023-02-15T04:32:43;97486.75;;;-2.37;99.18
73564;BME280;61834;50.196;6.454;2023-02-15T04:35:09;97485.16;;;-2.38;99.00
73564;BME280;61834;50.196;6.454;2023-02-15T04:37:35;97486.56;;;-2.50;99.18
73564;BME280;61834;50.196;6.454;2023-02-15T04:40:00;97483.66;;;-2.64;98.66
73564;BME280;61834;50.196;6.454;2023-02-15T04:42:26;97489.81;;;-2.79;98.77
73564;BME280;61834;50.196;6.454;2023-02-15T04:44:52;97481.00;;;-2.84;98.70
73564;BME280;61834;50.196;6.454;2023-02-15T04:47:18;97481.25;;;-2.76;99.06
73564;BME280;61834;50.196;6.454;2023-02-15T04:49:43;97476.97;;;-2.87;98.77
73564;BME280;61834;50.196;6.454;2023-02-15T04:52:09;97478.06;;;-2.88;98.45
73564;BME280;61834;50.196;6.454;2023-02-15T04:54:34;97481.31;;;-3.01;98.11
73564;BME280;61834;50.196;6.454;2023-02-15T04:57:00;97475.13;;;-3.01;98.20
73564;BME280;61834;50.196;6.454;2023-02-15T04:59:25;97479.97;;;-3.03;98.01
73564;BME280;61834;50.196;6.454;2023-02-15T05:01:50;97478.09;;;-3.18;98.15
73564;BME280;61834;50.196;6.454;2023-02-15T05:04:16;97484.28;;;-3.17;98.79
73564;BME280;61834;50.196;6.454;2023-02-15T05:06:41;97485.84;;;-2.96;98.33
73564;BME280;61834;50.196;6.454;2023-02-15T05:09:06;97489.31;;;-2.86;98.45
73564;BME280;61834;50.196;6.454;2023-02-15T05:11:32;97477.78;;;-2.86;99.16
73564;BME280;61834;50.196;6.454;2023-02-15T05:13:57;97485.84;;;-3.06;98.73
73564;BME280;61834;50.196;6.454;2023-02-15T05:16:23;97480.22;;;-3.10;98.36
73564;BME280;61834;50.196;6.454;2023-02-15T05:18:48;97485.31;;;-3.08;98.68
73564;BME280;61834;50.196;6.454;2023-02-15T05:21:13;97481.31;;;-3.11;98.14
73564;BME280;61834;50.196;6.454;2023-02-15T05:23:41;97481.03;;;-3.04;98.22
73564;BME280;61834;50.196;6.454;2023-02-15T05:26:10;97490.94;;;-3.10;97.98
73564;BME280;61834;50.196;6.454;2023-02-15T05:28:55;97482.38;;;-3.12;98.46
73564;BME280;61834;50.196;6.454;2023-02-15T05:31:20;97475.97;;;-3.11;98.79
73564;BME280;61834;50.196;6.454;2023-02-15T05:33:46;97473.78;;;-3.14;99.26
73564;BME280;61834;50.196;6.454;2023-02-15T05:36:11;97479.97;;;-3.13;99.06
73564;BME280;61834;50.196;6.454;2023-02-15T05:38:38;97478.38;;;-3.04;99.19
73564;BME280;61834;50.196;6.454;2023-02-15T05:41:07;97483.72;;;-3.04;99.39
73564;BME280;61834;50.196;6.454;2023-02-15T05:43:33;97490.13;;;-3.10;99.38
73564;BME280;61834;50.196;6.454;2023-02-15T05:45:59;97492.03;;;-3.01;99.38
73564;BME280;61834;50.196;6.454;2023-02-15T05:48:26;97488.25;;;-3.00;99.67
73564;BME280;61834;50.196;6.454;2023-02-15T05:51:03;97499.50;;;-2.88;99.13
73564;BME280;61834;50.196;6.454;2023-02-15T05:53:31;97499.78;;;-2.89;98.21
73564;BME280;61834;50.196;6.454;2023-02-15T05:55:57;97494.44;;;-3.29;97.38
73564;BME280;61834;50.196;6.454;2023-02-15T05:58:30;97495.75;;;-3.57;97.88
73564;BME280;61834;50.196;6.454;2023-02-15T06:00:55;97492.78;;;-3.60;98.66
73564;BME280;61834;50.196;6.454;2023-02-15T06:03:22;97491.22;;;-3.41;98.95
73564;BME280;61834;50.196;6.454;2023-02-15T06:05:48;97490.94;;;-3.30;98.66
73564;BME280;61834;50.196;6.454;2023-02-15T06:08:14;97488.00;;;-3.23;98.37
73564;BME280;61834;50.196;6.454;2023-02-15T06:10:39;97494.16;;;-3.38;99.50
73564;BME280;61834;50.196;6.454;2023-02-15T06:13:05;97494.69;;;-3.56;99.44
73564;BME280;61834;50.196;6.454;2023-02-15T06:15:31;97498.97;;;-3.60;100.00
73564;BME280;61834;50.196;6.454;2023-02-15T06:17:56;97496.28;;;-3.50;100.00
73564;BME280;61834;50.196;6.454;2023-02-15T06:20:22;97496.56;;;-3.41;100.00
73564;BME280;61834;50.196;6.454;2023-02-15T06:22:47;97503.78;;;-3.37;100.00
73564;BME280;61834;50.196;6.454;2023-02-15T06:25:12;97502.19;;;-3.53;100.00
73564;BME280;61834;50.196;6.454;2023-02-15T06:27:40;97500.03;;;-3.66;100.00
73564;BME280;61834;50.196;6.454;2023-02-15T06:30:07;97504.00;;;-3.78;100.00
73564;BME280;61834;50.196;6.454;2023-02-15T06:32:33;97504.78;;;-3.88;100.00
73564;BME280;61834;50.196;6.454;2023-02-15T06:34:58;97501.56;;;-3.90;100.00
73564;BME280;61834;50.196;6.454;2023-02-15T06:37:24;97497.56;;;-3.93;100.00
73564;BME280;61834;50.196;6.454;2023-02-15T06:39:49;97509.88;;;-3.87;100.00
73564;BME280;61834;50.196;6.454;2023-02-15T06:42:15;97506.69;;;-3.78;100.00
73564;BME280;61834;50.196;6.454;2023-02-15T06:44:40;97501.84;;;-3.92;100.00
73564;BME280;61834;50.196;6.454;2023-02-15T06:47:05;97502.09;;;-3.93;100.00
73564;BME280;61834;50.196;6.454;2023-02-15T06:49:33;97498.34;;;-3.97;100.00
73564;BME280;61834;50.196;6.454;2023-02-15T06:51:59;97509.88;;;-3.87;99.88
73564;BME280;61834;50.196;6.454;2023-02-15T06:54:24;97500.56;;;-3.69;99.36
73564;BME280;61834;50.196;6.454;2023-02-15T06:56:50;97498.69;;;-3.63;99.94
73564;BME280;61834;50.196;6.454;2023-02-15T06:59:15;97496.25;;;-3.75;99.82
73564;BME280;61834;50.196;6.454;2023-02-15T07:01:40;97493.56;;;-3.80;100.00
73564;BME280;61834;50.196;6.454;2023-02-15T07:04:06;97499.19;;;-3.81;100.00
73564;BME280;61834;50.196;6.454;2023-02-15T07:06:32;97501.06;;;-3.77;100.00
73564;BME280;61834;50.196;6.454;2023-02-15T07:08:58;97500.56;;;-3.74;100.00
73564;BME280;61834;50.196;6.454;2023-02-15T07:11:23;97487.44;;;-3.65;100.00
73564;BME280;61834;50.196;6.454;2023-02-15T07:14:08;97490.94;;;-3.60;100.00
73564;BME280;61834;50.196;6.454;2023-02-15T07:16:33;97487.69;;;-3.72;99.76
73564;BME280;61834;50.196;6.454;2023-02-15T07:18:58;97480.19;;;-3.80;100.00
73564;BME280;61834;50.196;6.454;2023-02-15T07:21:24;97476.72;;;-3.65;100.00
73564;BME280;61834;50.196;6.454;2023-02-15T07:23:49;97480.78;;;-3.53;100.00
73564;BME280;61834;50.196;6.454;2023-02-15T07:26:14;97476.22;;;-3.67;99.74
73564;BME280;61834;50.196;6.454;2023-02-15T07:28:40;97477.00;;;-3.62;99.99
73564;BME280;61834;50.196;6.454;2023-02-15T07:31:05;97470.06;;;-3.48;100.00
73564;BME280;61834;50.196;6.454;2023-02-15T07:33:31;97473.28;;;-3.36;99.57
73564;BME280;61834;50.196;6.454;2023-02-15T07:36:00;97463.13;;;-3.49;99.65
73564;BME280;61834;50.196;6.454;2023-02-15T07:38:30;97462.03;;;-3.28;99.24
73564;BME280;61834;50.196;6.454;2023-02-15T07:41:05;97462.56;;;-3.01;99.28
73564;BME280;61834;50.196;6.454;2023-02-15T07:43:33;97464.44;;;-3.06;99.10
73564;BME280;61834;50.196;6.454;2023-02-15T07:46:00;97461.16;;;-2.73;98.88
73564;BME280;61834;50.196;6.454;2023-02-15T07:48:26;97458.97;;;-2.56;98.46
73564;BME280;61834;50.196;6.454;2023-02-15T07:50:51;97460.81;;;-2.51;97.76
73564;BME280;61834;50.196;6.454;2023-02-15T07:53:17;97459.50;;;-2.59;98.00
73564;BME280;61834;50.196;6.454;2023-02-15T07:55:42;97454.28;;;-2.25;97.71
73564;BME280;61834;50.196;6.454;2023-02-15T07:58:07;97448.13;;;-2.26;97.05
73564;BME280;61834;50.196;6.454;2023-02-15T08:00:33;97446.25;;;-2.25;97.94
73564;BME280;61834;50.196;6.454;2023-02-15T08:03:18;97441.25;;;-1.98;97.92
73564;BME280;61834;50.196;6.454;2023-02-15T08:05:44;97431.84;;;-1.91;97.62
73564;BME280;61834;50.196;6.454;2023-02-15T08:08:11;97427.31;;;-1.95;97.27
73564;BME280;61834;50.196;6.454;2023-02-15T08:11:03;97425.72;;;-2.01;97.63
73564;BME280;61834;50.196;6.454;2023-02-15T08:13:49;97431.75;;;-1.76;97.61
73564;BME280;61834;50.196;6.454;2023-02-15T08:18:57;97420.41;;;-1.34;96.40
73564;BME280;61834;50.196;6.454;2023-02-15T08:21:25;97426.44;;;-1.18;95.91
73564;BME280;61834;50.196;6.454;2023-02-15T08:23:52;97424.97;;;-1.06;95.49
73564;BME280;61834;50.196;6.454;2023-02-15T08:26:18;97421.91;;;-0.94;94.61
73564;BME280;61834;50.196;6.454;2023-02-15T08:28:44;97427.19;;;-0.84;95.60
73564;BME280;61834;50.196;6.454;2023-02-15T08:31:11;97425.91;;;-0.68;95.83
73564;BME280;61834;50.196;6.454;2023-02-15T08:33:39;97425.09;;;-0.64;96.06
73564;BME280;61834;50.196;6.454;2023-02-15T08:36:10;97426.78;;;-0.49;95.61
73564;BME280;61834;50.196;6.454;2023-02-15T08:38:35;97425.81;;;-0.35;95.77
73564;BME280;61834;50.196;6.454;2023-02-15T08:43:46;97429.28;;;-0.11;96.53
73564;BME280;61834;50.196;6.454;2023-02-15T08:46:13;97423.09;;;0.08;96.10
73564;BME280;61834;50.196;6.454;2023-02-15T08:48:39;97424.47;;;0.24;95.35
73564;BME280;61834;50.196;6.454;2023-02-15T08:51:09;97425.50;;;0.28;95.38
73564;BME280;61834;50.196;6.454;2023-02-15T08:53:37;97418.22;;;0.47;94.59
73564;BME280;61834;50.196;6.454;2023-02-15T08:56:03;97424.00;;;0.54;93.68
73564;BME280;61834;50.196;6.454;2023-02-15T08:58:29;97415.00;;;0.63;93.13
73564;BME280;61834;50.196;6.454;2023-02-15T09:00:56;97428.47;;;0.77;93.01
73564;BME280;61834;50.196;6.454;2023-02-15T09:03:21;97421.34;;;0.86;93.47
73564;BME280;61834;50.196;6.454;2023-02-15T09:05:47;97426.06;;;1.07;93.94
73564;BME280;61834;50.196;6.454;2023-02-15T09:08:12;97425.19;;;1.25;94.04
73564;BME280;61834;50.196;6.454;2023-02-15T09:10:37;97432.13;;;1.45;94.18
73564;BME280;61834;50.196;6.454;2023-02-15T09:13:03;97429.53;;;1.67;95.65
73564;BME280;61834;50.196;6.454;2023-02-15T09:15:28;97426.09;;;1.89;95.23
73564;BME280;61834;50.196;6.454;2023-02-15T09:17:54;97415.50;;;2.06;94.89
73564;BME280;61834;50.196;6.454;2023-02-15T09:20:19;97422.22;;;2.30;94.43
73564;BME280;61834;50.196;6.454;2023-02-15T09:22:45;97423.19;;;2.48;93.15
73564;BME280;61834;50.196;6.454;2023-02-15T09:25:10;97423.88;;;2.53;92.21
73564;BME280;61834;50.196;6.454;2023-02-15T09:27:38;97423.19;;;2.70;90.66
73564;BME280;61834;50.196;6.454;2023-02-15T09:30:05;97429.50;;;2.88;91.30
73564;BME280;61834;50.196;6.454;2023-02-15T09:32:31;97422.16;;;3.02;91.09
73564;BME280;61834;50.196;6.454;2023-02-15T09:34:56;97422.97;;;3.11;89.88
73564;BME280;61834;50.196;6.454;2023-02-15T09:37:21;97436.91;;;3.26;89.33
73564;BME280;61834;50.196;6.454;2023-02-15T09:39:47;97428.56;;;3.45;89.37
73564;BME280;61834;50.196;6.454;2023-02-15T09:53:53;97432.50;;;4.34;87.04
73564;BME280;61834;50.196;6.454;2023-02-15T10:07:30;97427.84;;;5.11;81.09
73564;BME280;61834;50.196;6.454;2023-02-15T10:10:21;97426.19;;;5.28;79.07
73564;BME280;61834;50.196;6.454;2023-02-15T10:21:19;97423.78;;;5.81;76.75
73564;BME280;61834;50.196;6.454;2023-02-15T10:26:46;97420.88;;;6.23;75.17
73564;BME280;61834;50.196;6.454;2023-02-15T10:29:38;97415.63;;;6.18;71.48
73564;BME280;61834;50.196;6.454;2023-02-15T10:32:23;97421.16;;;6.30;71.36
73564;BME280;61834;50.196;6.454;2023-02-15T10:35:00;97423.53;;;6.32;70.32
73564;BME280;61834;50.196;6.454;2023-02-15T10:40:22;97422.66;;;6.40;70.12
73564;BME280;61834;50.196;6.454;2023-02-15T10:45:30;97413.06;;;6.63;70.05
73564;BME280;61834;50.196;6.454;2023-02-15T10:53:17;97410.53;;;6.79;68.72
73564;BME280;61834;50.196;6.454;2023-02-15T10:55:56;97406.06;;;6.95;67.49
73564;BME280;61834;50.196;6.454;2023-02-15T10:58:57;97406.44;;;7.05;67.83
73564;BME280;61834;50.196;6.454;2023-02-15T11:01:51;97404.97;;;7.08;66.69
73564;BME280;61834;50.196;6.454;2023-02-15T11:04:40;97398.41;;;7.09;66.70
73564;BME280;61834;50.196;6.454;2023-02-15T11:07:35;97391.13;;;7.13;66.77
73564;BME280;61834;50.196;6.454;2023-02-15T11:12:40;97398.56;;;7.36;65.75
73564;BME280;61834;50.196;6.454;2023-02-15T11:15:29;97392.72;;;7.70;65.05
73564;BME280;61834;50.196;6.454;2023-02-15T11:18:02;97392.06;;;7.86;64.36
73564;BME280;61834;50.196;6.454;2023-02-15T11:20:35;97389.78;;;7.63;63.65
73564;BME280;61834;50.196;6.454;2023-02-15T11:23:12;97384.22;;;7.72;64.10
73564;BME280;61834;50.196;6.454;2023-02-15T11:25:43;97375.41;;;8.51;62.88
73564;BME280;61834;50.196;6.454;2023-02-15T11:28:18;97374.06;;;8.84;60.36
73564;BME280;61834;50.196;6.454;2023-02-15T11:30:47;97368.44;;;10.14;58.97
73564;BME280;61834;50.196;6.454;2023-02-15T11:33:37;97368.75;;;10.63;54.30
73564;BME280;61834;50.196;6.454;2023-02-15T11:36:40;97364.72;;;9.60;56.93
73564;BME280;61834;50.196;6.454;2023-02-15T11:39:15;97368.38;;;9.79;56.13
73564;BME280;61834;50.196;6.454;2023-02-15T11:41:49;97357.31;;;10.76;53.07
73564;BME280;61834;50.196;6.454;2023-02-15T11:44:22;97360.66;;;10.89;53.34
73564;BME280;61834;50.196;6.454;2023-02-15T11:46:49;97361.66;;;10.43;54.61
73564;BME280;61834;50.196;6.454;2023-02-15T11:49:34;97365.88;;;9.90;56.05
73564;BME280;61834;50.196;6.454;2023-02-15T11:52:07;97362.63;;;9.69;57.89
73564;BME280;61834;50.196;6.454;2023-02-15T11:54:40;97362.06;;;10.10;56.97
73564;BME280;61834;50.196;6.454;2023-02-15T11:57:14;97347.28;;;10.30;55.49
73564;BME280;61834;50.196;6.454;2023-02-15T11:59:45;97347.69;;;9.97;58.68
73564;BME280;61834;50.196;6.454;2023-02-15T12:02:17;97340.56;;;10.62;56.11
73564;BME280;61834;50.196;6.454;2023-02-15T12:04:48;97340.38;;;11.77;54.00
73564;BME280;61834;50.196;6.454;2023-02-15T12:07:23;97330.31;;;12.36;51.34
73564;BME280;61834;50.196;6.454;2023-02-15T12:12:39;97333.00;;;12.92;48.08
73564;BME280;61834;50.196;6.454;2023-02-15T12:15:07;97326.84;;;13.02;50.70
73564;BME280;61834;50.196;6.454;2023-02-15T12:17:35;97322.28;;;14.00;46.48
73564;BME280;61834;50.196;6.454;2023-02-15T12:20:19;97320.41;;;14.12;46.56
73564;BME280;61834;50.196;6.454;2023-02-15T12:22:49;97312.19;;;14.97;44.90
73564;BME280;61834;50.196;6.454;2023-02-15T12:25:51;97306.75;;;14.29;44.57
73564;BME280;61834;50.196;6.454;2023-02-15T12:28:34;97302.41;;;13.74;46.14
73564;BME280;61834;50.196;6.454;2023-02-15T12:31:19;97293.06;;;14.40;45.49
73564;BME280;61834;50.196;6.454;2023-02-15T12:33:45;97289.88;;;14.34;44.75
73564;BME280;61834;50.196;6.454;2023-02-15T12:36:23;97292.03;;;13.13;46.77
73564;BME280;61834;50.196;6.454;2023-02-15T12:41:36;97286.56;;;14.83;47.08
73564;BME280;61834;50.196;6.454;2023-02-15T12:44:18;97284.63;;;14.19;46.97
73564;BME280;61834;50.196;6.454;2023-02-15T12:47:00;97278.00;;;15.19;43.40
73564;BME280;61834;50.196;6.454;2023-02-15T12:49:27;97279.47;;;14.07;44.68
73564;BME280;61834;50.196;6.454;2023-02-15T12:56:50;97277.91;;;11.67;52.25
73564;BME280;61834;50.196;6.454;2023-02-15T12:59:15;97278.84;;;12.59;51.22
73564;BME280;61834;50.196;6.454;2023-02-15T13:01:42;97275.47;;;12.14;51.39
73564;BME280;61834;50.196;6.454;2023-02-15T13:04:25;97275.00;;;12.67;50.00
73564;BME280;61834;50.196;6.454;2023-02-15T13:06:53;97277.66;;;12.60;50.20
73564;BME280;61834;50.196;6.454;2023-02-15T13:09:26;97273.47;;;12.70;49.93
73564;BME280;61834;50.196;6.454;2023-02-15T13:12:22;97270.50;;;12.23;50.57
73564;BME280;61834;50.196;6.454;2023-02-15T13:14:50;97269.28;;;12.20;53.11
73564;BME280;61834;50.196;6.454;2023-02-15T13:17:18;97263.66;;;11.84;52.65
73564;BME280;61834;50.196;6.454;2023-02-15T13:19:51;97264.50;;;12.43;52.17
73564;BME280;61834;50.196;6.454;2023-02-15T13:22:22;97261.47;;;11.93;53.23
73564;BME280;61834;50.196;6.454;2023-02-15T13:24:51;97264.47;;;11.84;53.81
73564;BME280;61834;50.196;6.454;2023-02-15T13:27:23;97266.31;;;12.03;53.02
73564;BME280;61834;50.196;6.454;2023-02-15T13:29:52;97260.25;;;11.90;53.26
73564;BME280;61834;50.196;6.454;2023-02-15T13:32:31;97257.63;;;12.56;54.15
73564;BME280;61834;50.196;6.454;2023-02-15T13:35:01;97254.09;;;12.93;51.71
73564;BME280;61834;50.196;6.454;2023-02-15T13:40:36;97248.72;;;12.66;52.59
73564;BME280;61834;50.196;6.454;2023-02-15T13:54:34;97241.28;;;12.37;54.25
73564;BME280;61834;50.196;6.454;2023-02-15T13:57:31;97235.84;;;13.11;50.42
73564;BME280;61834;50.196;6.454;2023-02-15T14:00:44;97236.69;;;13.65;50.13
73564;BME280;61834;50.196;6.454;2023-02-15T14:03:05;97237.22;;;12.94;53.66
73564;BME280;61834;50.196;6.454;2023-02-15T14:08:48;97231.66;;;12.21;52.35
73564;BME280;61834;50.196;6.454;2023-02-15T14:11:29;97226.28;;;11.72;54.59
73564;BME280;61834;50.196;6.454;2023-02-15T14:17:12;97246.63;;;11.97;53.79
73564;BME280;61834;50.196;6.454;2023-02-15T14:22:38;97249.53;;;11.33;56.28
73564;BME280;61834;50.196;6.454;2023-02-15T14:25:15;97250.09;;;11.19;56.25
73564;BME280;61834;50.196;6.454;2023-02-15T14:27:56;97250.19;;;11.04;56.15
73564;BME280;61834;50.196;6.454;2023-02-15T14:30:28;97252.97;;;11.26;57.18
73564;BME280;61834;50.196;6.454;2023-02-15T14:32:59;97252.94;;;11.04;57.27
73564;BME280;61834;50.196;6.454;2023-02-15T14:35:27;97260.44;;;11.29;56.15
73564;BME280;61834;50.196;6.454;2023-02-15T14:38:46;97261.16;;;11.04;56.63
73564;BME280;61834;50.196;6.454;2023-02-15T14:43:58;97258.50;;;10.47;58.29
73564;BME280;61834;50.196;6.454;2023-02-15T14:46:42;97257.53;;;11.45;58.18
73564;BME280;61834;50.196;6.454;2023-02-15T14:49:17;97266.78;;;11.11;56.52
73564;BME280;61834;50.196;6.454;2023-02-15T15:02:15;97260.25;;;10.96;58.04
73564;BME280;61834;50.196;6.454;2023-02-15T15:04:52;97251.59;;;11.17;57.21
73564;BME280;61834;50.196;6.454;2023-02-15T15:07:48;97259.78;;;10.14;59.18
73564;BME280;61834;50.196;6.454;2023-02-15T15:12:58;97263.56;;;9.75;59.53
73564;BME280;61834;50.196;6.454;2023-02-15T15:15:46;97254.53;;;9.90;58.94
73564;BME280;61834;50.196;6.454;2023-02-15T15:18:45;97263.66;;;9.79;60.32
73564;BME280;61834;50.196;6.454;2023-02-15T15:21:10;97263.13;;;9.73;61.43
73564;BME280;61834;50.196;6.454;2023-02-15T15:26:21;97251.97;;;9.47;61.37
73564;BME280;61834;50.196;6.454;2023-02-15T15:31:38;97250.41;;;9.31;61.03
73564;BME280;61834;50.196;6.454;2023-02-15T15:37:32;97260.63;;;9.03;62.69